sensor_id;sensor_type;location;lat;lon;timestamp;P1;durP1;ratioP1;P2;durP2;ratioP2
77736;SDS011;66903;59.926;30.404;2023-07-24T00:02:22;2.78;;;0.90;;
77736;SDS011;66903;59.926;30.404;2023-07-24T00:07:22;3.03;;;0.88;;
77736;SDS011;66903;59.926;30.404;2023-07-24T00:12:23;10.98;;;1.27;;
77736;SDS011;66903;59.926;30.404;2023-07-24T00:17:24;3.67;;;0.75;;
77736;SDS011;66903;59.926;30.404;2023-07-24T00:22:24;1.98;;;0.73;;
77736;SDS011;66903;59.926;30.404;2023-07-24T00:27:25;2.95;;;0.95;;
77736;SDS011;66903;59.926;30.404;2023-07-24T00:32:25;2.33;;;0.80;;
77736;SDS011;66903;59.926;30.404;2023-07-24T00:37:26;4.78;;;0.95;;
77736;SDS011;66903;59.926;30.404;2023-07-24T00:42:26;2.38;;;0.88;;
77736;SDS011;66903;59.926;30.404;2023-07-24T00:47:27;3.80;;;0.88;;
77736;SDS011;66903;59.926;30.404;2023-07-24T00:52:28;1.90;;;0.80;;
77736;SDS011;66903;59.926;30.404;2023-07-24T00:57:28;4.00;;;0.85;;
77736;SDS011;66903;59.926;30.404;2023-07-24T01:02:29;3.10;;;0.70;;
77736;SDS011;66903;59.926;30.404;2023-07-24T01:07:30;2.80;;;0.77;;
77736;SDS011;66903;59.926;30.404;2023-07-24T01:12:31;2.08;;;0.70;;
77736;SDS011;66903;59.926;30.404;2023-07-24T01:17:38;2.40;;;0.80;;
77736;SDS011;66903;59.926;30.404;2023-07-24T01:28:06;3.42;;;1.20;;
77736;SDS011;66903;59.926;30.404;2023-07-24T01:33:07;4.50;;;1.30;;
77736;SDS011;66903;59.926;30.404;2023-07-24T01:38:08;4.10;;;1.20;;
77736;SDS011;66903;59.926;30.404;2023-07-24T01:43:09;4.35;;;1.23;;
77736;SDS011;66903;59.926;30.404;2023-07-24T01:48:09;3.92;;;1.27;;
77736;SDS011;66903;59.926;30.404;2023-07-24T01:53:10;3.75;;;1.20;;
77736;SDS011;66903;59.926;30.404;2023-07-24T01:58:11;4.78;;;1.30;;
77736;SDS011;66903;59.926;30.404;2023-07-24T02:03:11;3.72;;;1.20;;
77736;SDS011;66903;59.926;30.404;2023-07-24T02:08:12;2.35;;;0.85;;
77736;SDS011;66903;59.926;30.404;2023-07-24T02:13:12;2.58;;;0.85;;
77736;SDS011;66903;59.926;30.404;2023-07-24T02:18:13;3.15;;;0.90;;
77736;SDS011;66903;59.926;30.404;2023-07-24T02:23:13;3.83;;;0.93;;
77736;SDS011;66903;59.926;30.404;2023-07-24T02:28:14;3.33;;;0.90;;
77736;SDS011;66903;59.926;30.404;2023-07-24T02:33:14;3.45;;;0.88;;
77736;SDS011;66903;59.926;30.404;2023-07-24T02:38:15;3.20;;;0.98;;
77736;SDS011;66903;59.926;30.404;2023-07-24T02:43:16;3.17;;;1.00;;
77736;SDS011;66903;59.926;30.404;2023-07-24T02:48:16;2.65;;;0.82;;
77736;SDS011;66903;59.926;30.404;2023-07-24T02:53:17;3.60;;;1.00;;
77736;SDS011;66903;59.926;30.404;2023-07-24T02:58:18;3.22;;;1.00;;
77736;SDS011;66903;59.926;30.404;2023-07-24T03:03:18;2.92;;;1.00;;
77736;SDS011;66903;59.926;30.404;2023-07-24T03:08:19;2.72;;;0.90;;
77736;SDS011;66903;59.926;30.404;2023-07-24T03:13:19;3.80;;;1.20;;
77736;SDS011;66903;59.926;30.404;2023-07-24T03:18:20;2.40;;;0.90;;
77736;SDS011;66903;59.926;30.404;2023-07-24T03:23:21;3.17;;;1.05;;
77736;SDS011;66903;59.926;30.404;2023-07-24T03:28:21;3.08;;;0.93;;
77736;SDS011;66903;59.926;30.404;2023-07-24T03:33:22;2.60;;;0.75;;
77736;SDS011;66903;59.926;30.404;2023-07-24T03:38:22;3.17;;;1.00;;
77736;SDS011;66903;59.926;30.404;2023-07-24T03:43:23;5.25;;;1.10;;
77736;SDS011;66903;59.926;30.404;2023-07-24T03:48:23;4.95;;;1.00;;
77736;SDS011;66903;59.926;30.404;2023-07-24T03:53:24;3.67;;;1.00;;
77736;SDS011;66903;59.926;30.404;2023-07-24T03:58:25;2.58;;;0.90;;
77736;SDS011;66903;59.926;30.404;2023-07-24T04:03:25;2.85;;;0.80;;
77736;SDS011;66903;59.926;30.404;2023-07-24T04:08:26;3.17;;;0.90;;
77736;SDS011;66903;59.926;30.404;2023-07-24T04:13:26;3.75;;;0.90;;
77736;SDS011;66903;59.926;30.404;2023-07-24T04:18:27;2.78;;;0.90;;
77736;SDS011;66903;59.926;30.404;2023-07-24T04:23:27;2.40;;;0.75;;
77736;SDS011;66903;59.926;30.404;2023-07-24T04:28:28;2.67;;;0.90;;
77736;SDS011;66903;59.926;30.404;2023-07-24T04:33:28;2.88;;;0.63;;
77736;SDS011;66903;59.926;30.404;2023-07-24T04:38:29;2.60;;;0.85;;
77736;SDS011;66903;59.926;30.404;2023-07-24T04:43:29;2.80;;;0.80;;
77736;SDS011;66903;59.926;30.404;2023-07-24T04:48:30;2.17;;;0.80;;
77736;SDS011;66903;59.926;30.404;2023-07-24T04:53:31;1.95;;;0.82;;
77736;SDS011;66903;59.926;30.404;2023-07-24T04:58:31;2.83;;;0.82;;
77736;SDS011;66903;59.926;30.404;2023-07-24T05:03:32;1.75;;;0.70;;
77736;SDS011;66903;59.926;30.404;2023-07-24T05:08:32;2.53;;;0.60;;
77736;SDS011;66903;59.926;30.404;2023-07-24T05:13:33;3.50;;;0.70;;
77736;SDS011;66903;59.926;30.404;2023-07-24T05:18:33;2.65;;;0.77;;
77736;SDS011;66903;59.926;30.404;2023-07-24T05:23:34;3.85;;;0.70;;
77736;SDS011;66903;59.926;30.404;2023-07-24T05:28:35;2.28;;;0.80;;
77736;SDS011;66903;59.926;30.404;2023-07-24T05:33:35;1.67;;;0.63;;
77736;SDS011;66903;59.926;30.404;2023-07-24T05:38:36;1.77;;;0.60;;
77736;SDS011;66903;59.926;30.404;2023-07-24T05:43:36;2.33;;;0.80;;
77736;SDS011;66903;59.926;30.404;2023-07-24T05:48:37;3.10;;;0.70;;
77736;SDS011;66903;59.926;30.404;2023-07-24T05:53:37;1.88;;;0.75;;
77736;SDS011;66903;59.926;30.404;2023-07-24T05:58:38;3.35;;;0.80;;
77736;SDS011;66903;59.926;30.404;2023-07-24T06:03:38;4.65;;;0.77;;
77736;SDS011;66903;59.926;30.404;2023-07-24T06:08:39;4.55;;;0.68;;
77736;SDS011;66903;59.926;30.404;2023-07-24T06:13:39;1.60;;;0.60;;
77736;SDS011;66903;59.926;30.404;2023-07-24T06:18:40;2.10;;;0.73;;
77736;SDS011;66903;59.926;30.404;2023-07-24T06:23:42;2.60;;;0.70;;
77736;SDS011;66903;59.926;30.404;2023-07-24T06:28:43;2.90;;;0.90;;
77736;SDS011;66903;59.926;30.404;2023-07-24T06:33:43;1.67;;;0.73;;
77736;SDS011;66903;59.926;30.404;2023-07-24T06:38:44;2.33;;;0.70;;
77736;SDS011;66903;59.926;30.404;2023-07-24T06:43:46;2.35;;;0.70;;
77736;SDS011;66903;59.926;30.404;2023-07-24T06:48:47;2.13;;;0.70;;
77736;SDS011;66903;59.926;30.404;2023-07-24T06:53:48;2.17;;;0.70;;
77736;SDS011;66903;59.926;30.404;2023-07-24T06:58:48;1.55;;;0.65;;
77736;SDS011;66903;59.926;30.404;2023-07-24T07:03:49;3.72;;;0.70;;
77736;SDS011;66903;59.926;30.404;2023-07-24T07:08:49;2.38;;;0.80;;
77736;SDS011;66903;59.926;30.404;2023-07-24T07:13:50;2.65;;;0.90;;
77736;SDS011;66903;59.926;30.404;2023-07-24T07:18:50;4.00;;;1.15;;
77736;SDS011;66903;59.926;30.404;2023-07-24T07:23:51;2.15;;;0.80;;
77736;SDS011;66903;59.926;30.404;2023-07-24T07:28:51;2.47;;;0.80;;
77736;SDS011;66903;59.926;30.404;2023-07-24T07:33:52;1.65;;;0.68;;
77736;SDS011;66903;59.926;30.404;2023-07-24T07:38:53;2.58;;;0.70;;
77736;SDS011;66903;59.926;30.404;2023-07-24T07:43:53;3.30;;;0.77;;
77736;SDS011;66903;59.926;30.404;2023-07-24T07:48:54;2.15;;;0.70;;
77736;SDS011;66903;59.926;30.404;2023-07-24T07:53:54;2.85;;;0.82;;
77736;SDS011;66903;59.926;30.404;2023-07-24T07:58:55;3.85;;;0.70;;
77736;SDS011;66903;59.926;30.404;2023-07-24T08:03:55;1.15;;;0.50;;
77736;SDS011;66903;59.926;30.404;2023-07-24T08:08:56;3.40;;;0.70;;
77736;SDS011;66903;59.926;30.404;2023-07-24T08:13:58;3.30;;;0.80;;
77736;SDS011;66903;59.926;30.404;2023-07-24T08:18:58;3.80;;;0.88;;
77736;SDS011;66903;59.926;30.404;2023-07-24T08:23:59;1.75;;;0.60;;
77736;SDS011;66903;59.926;30.404;2023-07-24T08:29:00;2.92;;;0.75;;
77736;SDS011;66903;59.926;30.404;2023-07-24T08:34:00;2.55;;;0.80;;
77736;SDS011;66903;59.926;30.404;2023-07-24T08:39:01;2.08;;;0.80;;
77736;SDS011;66903;59.926;30.404;2023-07-24T08:44:01;6.78;;;1.38;;
77736;SDS011;66903;59.926;30.404;2023-07-24T08:49:03;2.30;;;0.82;;
77736;SDS011;66903;59.926;30.404;2023-07-24T08:54:04;5.30;;;0.90;;
77736;SDS011;66903;59.926;30.404;2023-07-24T08:59:04;3.65;;;1.13;;
77736;SDS011;66903;59.926;30.404;2023-07-24T09:04:05;2.25;;;0.90;;
77736;SDS011;66903;59.926;30.404;2023-07-24T09:09:12;6.95;;;1.27;;
77736;SDS011;66903;59.926;30.404;2023-07-24T09:14:27;3.35;;;1.05;;
77736;SDS011;66903;59.926;30.404;2023-07-24T09:19:30;2.55;;;0.95;;
77736;SDS011;66903;59.926;30.404;2023-07-24T09:24:31;4.13;;;1.00;;
77736;SDS011;66903;59.926;30.404;2023-07-24T09:29:32;2.67;;;0.77;;
77736;SDS011;66903;59.926;30.404;2023-07-24T09:34:33;4.78;;;1.05;;
77736;SDS011;66903;59.926;30.404;2023-07-24T09:39:34;4.60;;;1.00;;
77736;SDS011;66903;59.926;30.404;2023-07-24T09:44:34;2.85;;;1.05;;
77736;SDS011;66903;59.926;30.404;2023-07-24T09:49:35;4.85;;;1.33;;
77736;SDS011;66903;59.926;30.404;2023-07-24T09:54:37;2.70;;;0.95;;
77736;SDS011;66903;59.926;30.404;2023-07-24T09:59:47;3.20;;;1.10;;
77736;SDS011;66903;59.926;30.404;2023-07-24T10:04:49;3.80;;;1.02;;
77736;SDS011;66903;59.926;30.404;2023-07-24T10:09:50;6.03;;;1.60;;
77736;SDS011;66903;59.926;30.404;2023-07-24T10:14:52;3.85;;;1.27;;
77736;SDS011;66903;59.926;30.404;2023-07-24T10:20:01;4.00;;;1.23;;
77736;SDS011;66903;59.926;30.404;2023-07-24T10:25:05;4.60;;;1.25;;
77736;SDS011;66903;59.926;30.404;2023-07-24T10:30:06;4.32;;;1.27;;
77736;SDS011;66903;59.926;30.404;2023-07-24T10:35:08;4.43;;;1.88;;
77736;SDS011;66903;59.926;30.404;2023-07-24T10:40:18;4.70;;;1.48;;
77736;SDS011;66903;59.926;30.404;2023-07-24T10:45:22;4.32;;;1.20;;
77736;SDS011;66903;59.926;30.404;2023-07-24T10:50:23;4.07;;;1.35;;
77736;SDS011;66903;59.926;30.404;2023-07-24T10:55:24;7.85;;;1.38;;
77736;SDS011;66903;59.926;30.404;2023-07-24T11:00:25;3.80;;;1.25;;
77736;SDS011;66903;59.926;30.404;2023-07-24T11:05:27;13.38;;;2.13;;
77736;SDS011;66903;59.926;30.404;2023-07-24T11:10:27;3.47;;;0.85;;
77736;SDS011;66903;59.926;30.404;2023-07-24T11:15:30;2.53;;;1.00;;
77736;SDS011;66903;59.926;30.404;2023-07-24T11:20:31;2.05;;;0.80;;
77736;SDS011;66903;59.926;30.404;2023-07-24T11:25:31;3.05;;;0.93;;
77736;SDS011;66903;59.926;30.404;2023-07-24T11:30:32;4.05;;;1.10;;
77736;SDS011;66903;59.926;30.404;2023-07-24T11:35:33;2.70;;;0.95;;
77736;SDS011;66903;59.926;30.404;2023-07-24T11:40:39;2.75;;;0.80;;
77736;SDS011;66903;59.926;30.404;2023-07-24T11:45:41;3.75;;;1.00;;
77736;SDS011;66903;59.926;30.404;2023-07-24T11:50:43;2.47;;;0.73;;
77736;SDS011;66903;59.926;30.404;2023-07-24T11:55:47;1.92;;;0.73;;
77736;SDS011;66903;59.926;30.404;2023-07-24T12:00:49;2.80;;;0.70;;
77736;SDS011;66903;59.926;30.404;2023-07-24T12:05:52;2.08;;;0.77;;
77736;SDS011;66903;59.926;30.404;2023-07-24T12:10:52;1.90;;;0.70;;
77736;SDS011;66903;59.926;30.404;2023-07-24T12:15:53;1.85;;;0.63;;
77736;SDS011;66903;59.926;30.404;2023-07-24T12:20:54;1.52;;;0.60;;
77736;SDS011;66903;59.926;30.404;2023-07-24T12:25:55;1.23;;;0.47;;
77736;SDS011;66903;59.926;30.404;2023-07-24T12:30:55;2.08;;;0.68;;
77736;SDS011;66903;59.926;30.404;2023-07-24T12:35:56;2.00;;;0.80;;
77736;SDS011;66903;59.926;30.404;2023-07-24T12:40:56;1.85;;;0.57;;
77736;SDS011;66903;59.926;30.404;2023-07-24T12:45:57;3.22;;;1.05;;
77736;SDS011;66903;59.926;30.404;2023-07-24T12:50:57;4.07;;;1.10;;
77736;SDS011;66903;59.926;30.404;2023-07-24T12:56:00;4.13;;;1.00;;
77736;SDS011;66903;59.926;30.404;2023-07-24T13:01:00;5.00;;;0.90;;
77736;SDS011;66903;59.926;30.404;2023-07-24T13:06:01;4.25;;;0.85;;
77736;SDS011;66903;59.926;30.404;2023-07-24T13:11:01;3.30;;;0.90;;
77736;SDS011;66903;59.926;30.404;2023-07-24T13:16:02;3.53;;;0.65;;
77736;SDS011;66903;59.926;30.404;2023-07-24T13:21:03;2.40;;;0.80;;
77736;SDS011;66903;59.926;30.404;2023-07-24T13:26:04;3.33;;;0.77;;
77736;SDS011;66903;59.926;30.404;2023-07-24T13:31:11;3.67;;;0.80;;
77736;SDS011;66903;59.926;30.404;2023-07-24T13:36:18;6.30;;;1.17;;
77736;SDS011;66903;59.926;30.404;2023-07-24T13:41:19;5.07;;;1.30;;
77736;SDS011;66903;59.926;30.404;2023-07-24T13:46:19;4.03;;;1.10;;
77736;SDS011;66903;59.926;30.404;2023-07-24T13:51:20;6.90;;;1.60;;
77736;SDS011;66903;59.926;30.404;2023-07-24T13:56:21;5.45;;;1.10;;
77736;SDS011;66903;59.926;30.404;2023-07-24T14:01:23;3.75;;;0.95;;
77736;SDS011;66903;59.926;30.404;2023-07-24T14:06:23;2.15;;;0.70;;
77736;SDS011;66903;59.926;30.404;2023-07-24T14:11:24;4.35;;;0.73;;
77736;SDS011;66903;59.926;30.404;2023-07-24T14:16:26;3.03;;;0.82;;
77736;SDS011;66903;59.926;30.404;2023-07-24T14:21:29;3.58;;;0.77;;
77736;SDS011;66903;59.926;30.404;2023-07-24T14:26:30;2.08;;;0.70;;
77736;SDS011;66903;59.926;30.404;2023-07-24T14:31:30;4.65;;;0.60;;
77736;SDS011;66903;59.926;30.404;2023-07-24T14:36:31;2.30;;;0.70;;
77736;SDS011;66903;59.926;30.404;2023-07-24T14:41:34;2.80;;;0.90;;
77736;SDS011;66903;59.926;30.404;2023-07-24T14:46:35;1.75;;;0.60;;
77736;SDS011;66903;59.926;30.404;2023-07-24T14:51:35;1.77;;;0.63;;
77736;SDS011;66903;59.926;30.404;2023-07-24T14:56:36;2.85;;;0.60;;
77736;SDS011;66903;59.926;30.404;2023-07-24T15:01:37;1.20;;;0.50;;
77736;SDS011;66903;59.926;30.404;2023-07-24T15:06:37;1.17;;;0.50;;
77736;SDS011;66903;59.926;30.404;2023-07-24T15:11:38;1.58;;;0.70;;
77736;SDS011;66903;59.926;30.404;2023-07-24T15:16:38;4.55;;;0.50;;
77736;SDS011;66903;59.926;30.404;2023-07-24T15:21:39;1.90;;;0.57;;
77736;SDS011;66903;59.926;30.404;2023-07-24T15:26:39;1.60;;;0.60;;
77736;SDS011;66903;59.926;30.404;2023-07-24T15:31:40;2.33;;;0.70;;
77736;SDS011;66903;59.926;30.404;2023-07-24T15:36:41;2.00;;;0.50;;
77736;SDS011;66903;59.926;30.404;2023-07-24T15:41:41;1.13;;;0.40;;
77736;SDS011;66903;59.926;30.404;2023-07-24T15:46:42;1.42;;;0.60;;
77736;SDS011;66903;59.926;30.404;2023-07-24T15:51:43;2.70;;;0.60;;
77736;SDS011;66903;59.926;30.404;2023-07-24T15:56:44;2.80;;;0.70;;
77736;SDS011;66903;59.926;30.404;2023-07-24T16:01:44;2.13;;;0.73;;
77736;SDS011;66903;59.926;30.404;2023-07-24T16:06:45;1.73;;;0.40;;
77736;SDS011;66903;59.926;30.404;2023-07-24T16:11:45;2.45;;;0.75;;
77736;SDS011;66903;59.926;30.404;2023-07-24T16:16:47;2.92;;;0.82;;
77736;SDS011;66903;59.926;30.404;2023-07-24T16:21:48;2.28;;;0.60;;
77736;SDS011;66903;59.926;30.404;2023-07-24T16:26:49;2.28;;;0.60;;
77736;SDS011;66903;59.926;30.404;2023-07-24T16:31:50;1.02;;;0.40;;
77736;SDS011;66903;59.926;30.404;2023-07-24T16:36:51;4.07;;;0.60;;
77736;SDS011;66903;59.926;30.404;2023-07-24T16:41:51;2.38;;;0.70;;
77736;SDS011;66903;59.926;30.404;2023-07-24T16:46:52;1.40;;;0.50;;
77736;SDS011;66903;59.926;30.404;2023-07-24T16:51:52;2.35;;;0.80;;
77736;SDS011;66903;59.926;30.404;2023-07-24T16:56:54;2.58;;;0.80;;
77736;SDS011;66903;59.926;30.404;2023-07-24T17:01:54;2.80;;;0.90;;
77736;SDS011;66903;59.926;30.404;2023-07-24T17:06:55;1.83;;;0.70;;
77736;SDS011;66903;59.926;30.404;2023-07-24T17:11:56;2.50;;;0.90;;
77736;SDS011;66903;59.926;30.404;2023-07-24T17:16:57;3.15;;;0.80;;
77736;SDS011;66903;59.926;30.404;2023-07-24T17:21:59;2.17;;;0.60;;
77736;SDS011;66903;59.926;30.404;2023-07-24T17:26:59;1.48;;;0.55;;
77736;SDS011;66903;59.926;30.404;2023-07-24T17:32:00;3.88;;;1.25;;
77736;SDS011;66903;59.926;30.404;2023-07-24T17:37:01;2.63;;;0.90;;
77736;SDS011;66903;59.926;30.404;2023-07-24T17:42:01;4.13;;;0.85;;
77736;SDS011;66903;59.926;30.404;2023-07-24T17:47:02;1.95;;;0.63;;
77736;SDS011;66903;59.926;30.404;2023-07-24T17:52:03;1.77;;;0.50;;
77736;SDS011;66903;59.926;30.404;2023-07-24T17:57:05;2.38;;;1.15;;
77736;SDS011;66903;59.926;30.404;2023-07-24T18:02:06;2.13;;;0.80;;
77736;SDS011;66903;59.926;30.404;2023-07-24T18:07:07;1.95;;;0.75;;
77736;SDS011;66903;59.926;30.404;2023-07-24T18:12:07;1.98;;;0.57;;
77736;SDS011;66903;59.926;30.404;2023-07-24T18:17:08;2.25;;;1.10;;
77736;SDS011;66903;59.926;30.404;2023-07-24T18:22:08;3.58;;;0.70;;
77736;SDS011;66903;59.926;30.404;2023-07-24T18:27:09;1.50;;;0.65;;
77736;SDS011;66903;59.926;30.404;2023-07-24T18:32:11;1.75;;;0.63;;
77736;SDS011;66903;59.926;30.404;2023-07-24T18:37:11;3.30;;;0.90;;
77736;SDS011;66903;59.926;30.404;2023-07-24T18:42:12;1.38;;;0.50;;
77736;SDS011;66903;59.926;30.404;2023-07-24T18:47:12;2.47;;;0.80;;
77736;SDS011;66903;59.926;30.404;2023-07-24T18:52:13;2.65;;;1.00;;
77736;SDS011;66903;59.926;30.404;2023-07-24T18:57:14;2.45;;;0.75;;
77736;SDS011;66903;59.926;30.404;2023-07-24T19:02:14;1.40;;;0.70;;
77736;SDS011;66903;59.926;30.404;2023-07-24T19:07:15;2.53;;;0.80;;
77736;SDS011;66903;59.926;30.404;2023-07-24T19:12:16;2.75;;;1.13;;
77736;SDS011;66903;59.926;30.404;2023-07-24T19:17:17;2.97;;;0.82;;
77736;SDS011;66903;59.926;30.404;2023-07-24T19:22:17;2.80;;;0.82;;
77736;SDS011;66903;59.926;30.404;2023-07-24T19:27:18;2.83;;;0.60;;
77736;SDS011;66903;59.926;30.404;2023-07-24T19:32:18;2.72;;;0.70;;
77736;SDS011;66903;59.926;30.404;2023-07-24T19:37:20;2.67;;;0.73;;
77736;SDS011;66903;59.926;30.404;2023-07-24T19:42:20;2.47;;;1.05;;
77736;SDS011;66903;59.926;30.404;2023-07-24T19:47:21;1.98;;;0.70;;
77736;SDS011;66903;59.926;30.404;2023-07-24T19:52:21;1.52;;;0.60;;
77736;SDS011;66903;59.926;30.404;2023-07-24T19:57:22;2.78;;;0.70;;
77736;SDS011;66903;59.926;30.404;2023-07-24T20:02:23;3.75;;;0.57;;
77736;SDS011;66903;59.926;30.404;2023-07-24T20:07:23;3.60;;;1.00;;
77736;SDS011;66903;59.926;30.404;2023-07-24T20:12:24;1.70;;;0.70;;
77736;SDS011;66903;59.926;30.404;2023-07-24T20:17:25;2.33;;;0.80;;
77736;SDS011;66903;59.926;30.404;2023-07-24T20:22:25;2.15;;;0.70;;
77736;SDS011;66903;59.926;30.404;2023-07-24T20:27:26;1.92;;;0.65;;
77736;SDS011;66903;59.926;30.404;2023-07-24T20:32:26;2.85;;;0.70;;
77736;SDS011;66903;59.926;30.404;2023-07-24T20:37:29;1.75;;;0.52;;
77736;SDS011;66903;59.926;30.404;2023-07-24T20:42:30;1.70;;;0.63;;
77736;SDS011;66903;59.926;30.404;2023-07-24T20:47:31;2.60;;;0.90;;
77736;SDS011;66903;59.926;30.404;2023-07-24T20:52:31;2.25;;;0.80;;
77736;SDS011;66903;59.926;30.404;2023-07-24T20:57:32;2.22;;;0.80;;
77736;SDS011;66903;59.926;30.404;2023-07-24T21:02:32;2.08;;;0.65;;
77736;SDS011;66903;59.926;30.404;2023-07-24T21:07:33;3.42;;;0.70;;
77736;SDS011;66903;59.926;30.404;2023-07-24T21:12:33;2.85;;;0.88;;
77736;SDS011;66903;59.926;30.404;2023-07-24T21:17:34;2.55;;;0.80;;
77736;SDS011;66903;59.926;30.404;2023-07-24T21:22:36;1.80;;;0.60;;
77736;SDS011;66903;59.926;30.404;2023-07-24T21:27:36;2.63;;;0.80;;
77736;SDS011;66903;59.926;30.404;2023-07-24T21:32:37;1.45;;;0.68;;
77736;SDS011;66903;59.926;30.404;2023-07-24T21:37:37;3.15;;;1.00;;
77736;SDS011;66903;59.926;30.404;2023-07-24T21:42:39;3.08;;;0.80;;
77736;SDS011;66903;59.926;30.404;2023-07-24T21:47:39;4.75;;;1.10;;
77736;SDS011;66903;59.926;30.404;2023-07-24T21:52:43;2.22;;;0.90;;
77736;SDS011;66903;59.926;30.404;2023-07-24T21:57:44;2.92;;;1.13;;
77736;SDS011;66903;59.926;30.404;2023-07-24T22:02:45;2.88;;;0.80;;
77736;SDS011;66903;59.926;30.404;2023-07-24T22:07:45;2.97;;;0.77;;
77736;SDS011;66903;59.926;30.404;2023-07-24T22:12:46;2.85;;;1.13;;
77736;SDS011;66903;59.926;30.404;2023-07-24T22:17:46;3.08;;;0.88;;
77736;SDS011;66903;59.926;30.404;2023-07-24T22:22:47;4.03;;;1.58;;
77736;SDS011;66903;59.926;30.404;2023-07-24T22:27:48;3.40;;;1.20;;
77736;SDS011;66903;59.926;30.404;2023-07-24T22:32:48;4.50;;;1.33;;
77736;SDS011;66903;59.926;30.404;2023-07-24T22:37:49;5.47;;;1.20;;
77736;SDS011;66903;59.926;30.404;2023-07-24T22:42:50;4.03;;;1.40;;
77736;SDS011;66903;59.926;30.404;2023-07-24T22:47:50;7.57;;;1.67;;
77736;SDS011;66903;59.926;30.404;2023-07-24T22:52:51;5.00;;;1.42;;
77736;SDS011;66903;59.926;30.404;2023-07-24T22:57:51;5.47;;;1.55;;
77736;SDS011;66903;59.926;30.404;2023-07-24T23:02:52;5.00;;;1.30;;
77736;SDS011;66903;59.926;30.404;2023-07-24T23:07:52;4.10;;;1.58;;
77736;SDS011;66903;59.926;30.404;2023-07-24T23:12:55;4.85;;;1.50;;
77736;SDS011;66903;59.926;30.404;2023-07-24T23:17:55;4.38;;;1.58;;
77736;SDS011;66903;59.926;30.404;2023-07-24T23:22:56;6.95;;;1.70;;
77736;SDS011;66903;59.926;30.404;2023-07-24T23:27:57;3.83;;;1.33;;
77736;SDS011;66903;59.926;30.404;2023-07-24T23:32:57;3.70;;;1.50;;
77736;SDS011;66903;59.926;30.404;2023-07-24T23:37:58;4.13;;;1.40;;
77736;SDS011;66903;59.926;30.404;2023-07-24T23:42:59;4.90;;;1.60;;
77736;SDS011;66903;59.926;30.404;2023-07-24T23:47:59;4.32;;;1.60;;
77736;SDS011;66903;59.926;30.404;2023-07-24T23:53:00;4.00;;;1.48;;
77736;SDS011;66903;59.926;30.404;2023-07-24T23:58:01;5.10;;;1.67;;
